Terminal Aerodrome Forecast
Issued by NWS Cleveland, OH

Home | Current Version | Previous Version | Graphics & Text | Print | Product List | Glossary On
Versions: 1 2 3 4 5 6 7 8 9 10 11 12 13 14 15 16
000
FTUS41 KCLE 180540
TAFYNG
TAF
KYNG 180540Z 1806/1906 26010KT 4SM -SHRA BR OVC009
     FM181400 26010KT 4SM -DZ BR OVC003
     FM181700 26010KT 4SM -DZ BR OVC009
     FM182100 26007KT 6SM -DZ BR OVC009
     FM190200 23005KT P6SM OVC009=

USA.gov is the U.S. government's official web portal to all federal, state and local government web resources and services.